Time;durP1;ratioP1;P1;durP2;ratioP2;P2;SDS_P1;SDS_P2;PMS_P1;PMS_P2;Temp;Humidity;BMP_temperature;BMP_pressure;BME280_temperature;BME280_humidity;BME280_pressure;Samples;Min_cycle;Max_cycle;Signal;HPM_P1;HPM_P2
2022/01/13 05:30:43;;;;;;;;;9.00;7.25;;;;;6.34;69.42;103699.03;5066224;27;46025;-74
2022/01/13 05:33:08;;;;;;;;;10.50;9.75;;;;;6.33;69.34;103703.44;5037852;28;45626;-74
2022/01/13 05:35:36;;;;;;;;;14.75;12.00;;;;;6.30;69.12;103706.03;5037782;28;45403;-73
2022/01/13 05:38:02;;;;;;;;;11.75;11.75;;;;;6.30;69.08;103706.03;5037209;28;45508;-74
2022/01/13 05:40:28;;;;;;;;;15.75;12.00;;;;;6.14;68.99;103677.31;5037278;28;46344;-72
2022/01/13 05:42:53;;;;;;;;;13.00;11.75;;;;;6.18;69.43;103695.16;5037458;28;45220;-72
2022/01/13 05:45:21;;;;;;;;;14.25;12.00;;;;;6.24;69.23;103695.28;5037409;28;45364;-73
2022/01/13 05:47:49;;;;;;;;;12.25;10.00;;;;;6.11;69.36;103685.28;5037244;28;46504;-73
2022/01/13 05:50:17;;;;;;;;;13.25;10.25;;;;;6.12;69.60;103680.84;5036549;28;45985;-73
2022/01/13 05:52:43;;;;;;;;;10.00;10.00;;;;;6.21;69.62;103689.88;5036964;28;45357;-74
2022/01/13 05:55:09;;;;;;;;;17.75;11.75;;;;;6.22;69.77;103697.00;5037153;28;45336;-73
2022/01/13 05:57:35;;;;;;;;;18.75;11.00;;;;;6.20;69.77;103689.88;5019260;28;45484;-73
2022/01/13 06:00:01;;;;;;;;;15.00;11.25;;;;;6.24;69.33;103694.38;5037094;28;46572;-73
2022/01/13 06:02:26;;;;;;;;;11.00;10.00;;;;;6.24;69.45;103697.94;5037182;28;45403;-74
2022/01/13 06:04:52;;;;;;;;;16.25;11.25;;;;;6.24;69.66;103692.63;5037267;28;45413;-74
2022/01/13 06:07:17;;;;;;;;;13.75;9.75;;;;;6.22;69.47;103683.69;5036945;28;45573;-73
2022/01/13 06:09:43;;;;;;;;;10.00;10.00;;;;;6.26;69.92;103693.56;5036864;28;46188;-73
2022/01/13 06:12:09;;;;;;;;;18.00;12.50;;;;;6.23;69.38;103684.59;5037081;28;45339;-72
2022/01/13 06:14:34;;;;;;;;;10.75;10.25;;;;;6.28;69.59;103699.81;5036994;28;45461;-73
2022/01/13 06:16:59;;;;;;;;;12.50;11.25;;;;;6.28;69.35;103699.81;5037133;28;45545;-74
2022/01/13 06:19:25;;;;;;;;;20.50;11.00;;;;;6.16;69.50;103677.34;5036431;28;45429;-73
2022/01/13 06:21:51;;;;;;;;;14.00;11.50;;;;;6.24;69.43;103683.72;5036959;28;45418;-74
2022/01/13 06:24:16;;;;;;;;;14.75;11.75;;;;;6.25;69.11;103699.75;5036627;28;45391;-73
2022/01/13 06:26:42;;;;;;;;;13.25;10.00;;;;;6.19;69.44;103696.06;5036771;28;45241;-73
2022/01/13 06:29:07;;;;;;;;;14.75;12.50;;;;;6.09;69.52;103673.69;5036526;28;45292;-73
2022/01/13 06:31:33;;;;;;;;;12.00;10.50;;;;;6.15;69.34;103692.44;5035175;28;45525;-73
2022/01/13 06:33:58;;;;;;;;;11.00;10.50;;;;;6.20;69.17;103703.19;5057083;28;45438;-74
2022/01/13 06:36:24;;;;;;;;;12.00;11.00;;;;;6.08;69.57;103679.88;5056993;28;45346;-74
2022/01/13 06:38:50;;;;;;;;;10.50;8.50;;;;;6.16;69.30;103688.91;5056368;28;45885;-77
2022/01/13 06:41:17;;;;;;;;;23.25;12.00;;;;;6.21;69.35;103694.34;5056969;28;45383;-74
2022/01/13 06:43:42;;;;;;;;;14.00;11.00;;;;;6.13;69.35;103683.50;5057139;28;45344;-76
2022/01/13 06:46:08;;;;;;;;;13.00;11.25;;;;;6.23;68.93;103697.91;5038455;28;46667;-73
2022/01/13 06:48:33;;;;;;;;;10.75;10.75;;;;;6.14;69.38;103687.97;5056088;28;46207;-79
2022/01/13 06:50:58;;;;;;;;;12.00;12.00;;;;;6.21;69.00;103700.53;5056483;28;45256;-78
2022/01/13 06:53:25;;;;;;;;;11.75;11.00;;;;;6.21;68.88;103697.00;5037943;28;45341;-77
2022/01/13 06:55:51;;;;;;;;;15.25;11.75;;;;;6.19;68.96;103699.63;5038394;28;47249;-77
2022/01/13 06:58:16;;;;;;;;;11.50;11.00;;;;;6.06;69.53;103689.59;5056283;28;47990;-80
2022/01/13 07:00:42;;;;;;;;;15.00;11.75;;;;;6.19;69.73;103712.94;5051551;28;45687;-77
2022/01/13 07:03:08;;;;;;;;;16.25;11.25;;;;;6.18;69.79;103704.94;5059719;28;45770;-75
2022/01/13 07:05:34;;;;;;;;;16.50;11.25;;;;;6.10;69.55;103686.13;5056623;28;45355;-77
2022/01/13 07:07:59;;;;;;;;;18.50;11.25;;;;;6.11;69.37;103687.94;5055965;28;45733;-78
2022/01/13 07:10:25;;;;;;;;;15.25;13.50;;;;;6.15;69.69;103697.75;5038054;28;46124;-78
2022/01/13 07:12:50;;;;;;;;;15.25;12.00;;;;;6.15;69.70;103711.09;5056613;28;45828;-74
2022/01/13 07:15:16;;;;;;;;;14.50;13.75;;;;;6.16;69.50;103706.66;5056258;28;45386;-77
2022/01/13 07:17:42;;;;;;;;;15.00;12.75;;;;;6.20;69.30;103712.09;5037688;28;47069;-76
2022/01/13 07:20:09;;;;;;;;;15.25;12.75;;;;;6.20;69.02;103713.84;5056735;28;45260;-74
2022/01/13 07:22:36;;;;;;;;;16.50;15.25;;;;;6.10;69.56;103688.81;5056647;28;45449;-74
2022/01/13 07:25:02;;;;;;;;;16.25;16.00;;;;;6.18;69.81;103705.81;5054615;28;45167;-76
2022/01/13 07:27:28;;;;;;;;;16.25;12.50;;;;;6.17;68.89;103704.03;5053143;28;45855;-77
2022/01/13 07:29:53;;;;;;;;;16.75;12.50;;;;;6.23;68.89;103711.22;5037476;28;45433;-74
2022/01/13 07:32:19;;;;;;;;;14.75;12.25;;;;;6.22;68.89;103713.00;5054594;28;45401;-74
2022/01/13 07:34:44;;;;;;;;;20.25;15.75;;;;;6.23;69.25;103711.22;5037399;28;46291;-74
2022/01/13 07:37:09;;;;;;;;;13.75;12.00;;;;;6.24;69.33;103713.94;5054811;28;45447;-73
2022/01/13 07:39:35;;;;;;;;;12.25;11.25;;;;;6.24;69.19;103715.69;5055057;28;45260;-74
2022/01/13 07:42:05;;;;;;;;;16.25;11.50;;;;;6.23;69.28;103724.53;5055125;28;45538;-73
2022/01/13 07:44:30;;;;;;;;;13.25;11.75;;;;;6.26;70.09;103716.63;5053990;28;45358;-73
2022/01/13 07:46:58;;;;;;;;;18.00;15.25;;;;;6.29;70.27;103708.72;5054658;28;45466;-75
2022/01/13 07:49:23;;;;;;;;;13.75;13.25;;;;;6.34;69.91;103707.91;5051527;28;45540;-74
2022/01/13 07:51:49;;;;;;;;;19.00;15.00;;;;;6.37;69.79;103715.06;5054837;28;45687;-72
2022/01/13 07:54:14;;;;;;;;;12.00;11.00;;;;;6.38;68.98;103711.53;5050724;28;45701;-72
2022/01/13 07:56:39;;;;;;;;;12.75;11.50;;;;;6.39;69.25;103718.63;5049202;28;45488;-72
2022/01/13 07:59:05;;;;;;;;;17.25;11.75;;;;;6.43;69.12;103710.75;5059056;28;45358;-71
2022/01/13 08:01:30;;;;;;;;;17.00;13.00;;;;;6.40;69.02;103702.69;5055064;28;45465;-73
2022/01/13 08:03:55;;;;;;;;;16.25;13.00;;;;;6.39;69.08;103700.00;5054851;28;45537;-73
2022/01/13 08:06:21;;;;;;;;;20.75;13.25;;;;;6.31;68.73;103681.19;5054570;28;45378;-71
2022/01/13 08:08:46;;;;;;;;;13.00;12.50;;;;;6.45;68.75;103706.34;5065612;28;45259;-72
2022/01/13 08:11:11;;;;;;;;;18.00;14.25;;;;;6.40;68.95;103691.13;5057022;28;45915;-73
2022/01/13 08:13:37;;;;;;;;;15.00;12.25;;;;;6.49;68.49;103701.06;5055133;28;45542;-71
2022/01/13 08:16:08;;;;;;;;;19.00;14.25;;;;;6.43;68.63;103691.19;5036318;28;46823;-73
2022/01/13 08:21:18;;;;;;;;;16.25;14.75;;;;;6.24;68.29;103668.63;5054781;28;45481;-73
2022/01/13 08:23:44;;;;;;;;;11.25;10.75;;;;;6.37;68.59;103700.00;5053961;28;45349;-72
2022/01/13 08:26:10;;;;;;;;;16.00;15.25;;;;;6.36;68.31;103705.28;5054149;28;45291;-72
2022/01/13 08:28:36;;;;;;;;;19.50;12.75;;;;;6.38;68.03;103706.22;5052495;28;45620;-72
2022/01/13 08:31:03;;;;;;;;;18.50;13.00;;;;;6.34;68.35;103699.91;5068253;28;45318;-71
2022/01/13 08:33:31;;;;;;;;;36.50;26.25;;;;;6.28;68.51;103682.94;5052939;28;45526;-76
2022/01/13 08:35:57;;;;;;;;;30.75;21.00;;;;;6.28;68.60;103688.25;5052885;28;45503;-73
2022/01/13 08:38:24;;;;;;;;;42.50;25.75;;;;;6.33;68.69;103697.22;5039470;28;45408;-74
2022/01/13 08:40:56;;;;;;;;;28.50;17.00;;;;;6.33;68.98;103695.47;5053254;28;45457;-73
2022/01/13 08:43:23;;;;;;;;;22.75;19.25;;;;;6.33;68.37;103692.78;5034709;28;45548;-73
2022/01/13 08:45:49;;;;;;;;;15.50;13.25;;;;;6.33;68.63;103700.78;5053090;28;45496;-75
2022/01/13 08:48:15;;;;;;;;;21.50;15.25;;;;;6.33;68.43;103700.78;5053239;28;45275;-73
2022/01/13 08:50:41;;;;;;;;;18.50;15.50;;;;;6.31;68.46;103702.50;5053724;28;45441;-75
2022/01/13 08:53:07;;;;;;;;;19.25;14.25;;;;;6.20;68.88;103676.56;5052504;28;45347;-73
2022/01/13 08:55:33;;;;;;;;;83.67;51.00;;;;;6.24;69.32;103683.72;5053251;28;45811;-74
2022/01/13 08:57:58;;;;;;;;;21.25;18.25;;;;;6.35;68.69;103696.38;5052886;28;45375;-74
2022/01/13 09:00:24;;;;;;;;;23.25;20.50;;;;;6.35;68.94;103696.38;5053899;28;45688;-73
2022/01/13 09:02:50;;;;;;;;;23.25;17.50;;;;;6.32;68.34;103696.31;5053104;28;45402;-75
2022/01/13 09:05:17;;;;;;;;;20.50;19.50;;;;;6.37;68.34;103700.00;5052793;28;46080;-75
2022/01/13 09:07:43;;;;;;;;;16.00;14.75;;;;;6.41;68.30;103709.81;5052507;28;45544;-76
2022/01/13 09:10:10;;;;;;;;;21.75;17.00;;;;;6.44;68.41;103714.31;5053867;28;45348;-74
2022/01/13 09:12:36;;;;;;;;;19.75;15.75;;;;;6.45;68.17;103718.78;5038230;28;47704;-74
2022/01/13 09:15:13;;;;;;;;;24.75;17.00;;;;;6.45;68.03;103705.47;5063903;28;46118;-73
2022/01/13 09:17:41;;;;;;;;;22.25;17.75;;;;;6.45;67.88;103719.69;5053184;28;45642;-75
2022/01/13 09:20:08;;;;;;;;;17.50;16.00;;;;;6.49;68.38;103722.38;5053597;28;45477;-75
2022/01/13 09:22:33;;;;;;;;;22.75;20.25;;;;;6.49;67.77;103722.38;5052544;28;45561;-72
2022/01/13 09:24:59;;;;;;;;;32.00;25.00;;;;;6.50;67.66;103727.75;5052546;28;45908;-75
2022/01/13 09:27:24;;;;;;;;;28.75;22.00;;;;;6.52;68.12;103726.00;5051566;28;45453;-73
2022/01/13 09:29:49;;;;;;;;;36.25;26.50;;;;;6.55;68.08;103730.50;5056446;28;45542;-75
2022/01/13 09:32:15;;;;;;;;;31.00;23.25;;;;;6.52;68.03;103735.78;5066892;28;45564;-75
2022/01/13 09:34:42;;;;;;;;;21.00;18.25;;;;;6.50;68.01;103718.84;5054130;28;45390;-75
2022/01/13 09:37:08;;;;;;;;;29.00;21.25;;;;;6.59;67.47;103735.00;5053652;28;45568;-77
2022/01/13 09:39:33;;;;;;;;;27.25;20.75;;;;;6.59;67.88;103735.91;5053726;28;45410;-74
2022/01/13 09:42:00;;;;;;;;;26.75;20.50;;;;;6.54;67.75;103729.63;5053568;28;45453;-75
2022/01/13 09:44:28;;;;;;;;;30.25;21.75;;;;;6.62;67.68;103745.75;5054217;28;46399;-77
2022/01/13 09:46:53;;;;;;;;;16.75;16.50;;;;;6.59;67.73;103735.91;5053688;28;45250;-74
2022/01/13 09:49:19;;;;;;;;;19.50;17.75;;;;;6.58;67.89;103736.78;5053859;28;45315;-75
2022/01/13 09:51:45;;;;;;;;;26.25;21.50;;;;;6.64;68.11;103744.88;5052699;28;45851;-74
2022/01/13 09:54:11;;;;;;;;;17.00;17.00;;;;;6.61;67.28;103741.28;5053640;28;45983;-74
2022/01/13 09:56:37;;;;;;;;;21.75;16.75;;;;;6.61;66.99;103738.63;5053477;28;45373;-75
2022/01/13 09:59:02;;;;;;;;;22.00;17.50;;;;;6.64;67.18;103733.31;5054010;28;45661;-75
2022/01/13 10:01:28;;;;;;;;;22.00;17.50;;;;;6.59;66.99;103724.34;5035353;28;45824;-75
2022/01/13 10:03:53;;;;;;;;;20.00;17.00;;;;;6.70;67.34;103755.69;5052724;28;45406;-73
2022/01/13 10:06:20;;;;;;;;;25.50;17.00;;;;;6.71;67.12;103740.59;5053829;28;45376;-74
2022/01/13 10:08:54;;;;;;;;;24.50;20.00;;;;;6.72;66.88;103751.25;5056821;28;45453;-76
2022/01/13 10:11:36;;;;;;;;;26.75;21.50;;;;;6.72;66.98;103747.72;5039049;28;45466;-73
2022/01/13 10:14:10;;;;;;;;;25.50;19.75;;;;;6.70;67.70;103753.00;5038487;28;47521;-73
2022/01/13 10:16:42;;;;;;;;;29.25;19.00;;;;;6.72;67.56;103747.72;5057095;28;45311;-75
2022/01/13 10:19:24;;;;;;;;;24.75;22.50;;;;;6.67;67.57;103742.28;5056685;28;45464;-75
2022/01/13 10:21:59;;;;;;;;;26.25;21.00;;;;;6.70;67.38;103747.69;5068453;28;45873;-74
2022/01/13 10:24:27;;;;;;;;;30.25;22.00;;;;;6.76;67.62;103750.44;5056902;28;46362;-75
2022/01/13 10:27:01;;;;;;;;;25.75;18.25;;;;;6.70;67.43;103736.13;5069319;28;45354;-75
2022/01/13 10:29:44;;;;;;;;;25.00;20.50;;;;;6.86;66.74;103746.19;5057180;28;45576;-76
2022/01/13 10:32:12;;;;;;;;;30.25;20.25;;;;;6.81;66.83;103732.75;5056223;28;45514;-74
2022/01/13 10:34:41;;;;;;;;;17.50;17.50;;;;;6.89;66.65;103743.53;5056719;28;45328;-75
2022/01/13 10:37:21;;;;;;;;;22.00;16.00;;;;;6.90;66.92;103742.69;5038492;28;45601;-75
2022/01/13 10:39:54;;;;;;;;;27.50;23.25;;;;;6.88;67.08;103736.44;5056500;28;45362;-74
2022/01/13 10:45:37;;;;;;;;;24.25;21.00;;;;;6.91;66.36;103740.91;5056422;28;45356;-73
2022/01/13 10:48:13;;;;;;;;;28.25;22.75;;;;;6.90;66.96;103737.34;5045117;28;45336;-75
2022/01/13 10:50:44;;;;;;;;;21.75;18.25;;;;;6.91;66.00;103743.56;5056845;28;45316;-76
2022/01/13 10:53:13;;;;;;;;;21.50;17.50;;;;;6.75;66.12;103713.97;5056146;28;45370;-74
2022/01/13 10:55:42;;;;;;;;;25.00;20.50;;;;;6.85;65.95;103728.38;5055896;28;45774;-76
2022/01/13 10:58:08;;;;;;;;;26.75;19.75;;;;;6.82;65.73;103718.53;5056233;28;45388;-76
2022/01/13 11:00:35;;;;;;;;;29.75;21.00;;;;;6.83;65.33;103723.00;5057422;28;45489;-75
2022/01/13 11:03:10;;;;;;;;;22.50;20.00;;;;;6.83;65.31;103720.34;5056922;28;45457;-74
2022/01/13 11:05:40;;;;;;;;;20.75;15.50;;;;;6.88;65.14;103727.53;5037988;28;47179;-76
2022/01/13 11:08:08;;;;;;;;;28.75;23.25;;;;;6.75;65.27;103705.09;5055394;28;45392;-75
2022/01/13 11:10:36;;;;;;;;;28.25;23.50;;;;;6.87;65.42;103725.75;5050667;28;45399;-76
2022/01/13 11:13:04;;;;;;;;;22.75;21.50;;;;;6.85;65.86;103723.03;5056101;28;45520;-77
2022/01/13 11:15:34;;;;;;;;;18.75;15.00;;;;;6.78;65.68;103703.38;5055675;28;45443;-77
2022/01/13 11:18:00;;;;;;;;;28.50;28.00;;;;;6.88;65.51;103708.88;5055141;28;45491;-75
2022/01/13 11:20:28;;;;;;;;;26.75;24.25;;;;;6.98;65.46;103710.78;5055440;28;45482;-73
2022/01/13 11:22:55;;;;;;;;;34.25;24.75;;;;;7.02;65.59;103718.00;5056118;28;45299;-76
2022/01/13 11:25:24;;;;;;;;;29.75;25.00;;;;;7.06;65.36;103719.84;5055800;28;45521;-73
2022/01/13 11:27:51;;;;;;;;;31.00;24.00;;;;;7.04;65.58;103700.25;5055818;28;45285;-76
2022/01/13 11:30:20;;;;;;;;;31.50;27.00;;;;;7.17;65.31;103720.91;5055968;28;45394;-74
2022/01/13 11:32:46;;;;;;;;;33.50;23.00;;;;;7.15;64.80;103706.63;5055383;28;45448;-75
2022/01/13 11:35:21;;;;;;;;;26.50;25.75;;;;;7.20;64.71;103712.94;5055408;28;46039;-75
2022/01/13 11:37:48;;;;;;;;;26.00;22.00;;;;;7.25;65.29;103713.00;5040632;28;45601;-75
2022/01/13 11:40:25;;;;;;;;;26.75;24.50;;;;;7.26;64.35;103702.38;5055552;28;46026;-76
2022/01/13 11:42:50;;;;;;;;;33.00;26.00;;;;;7.31;64.33;103699.78;5056015;28;45529;-76
2022/01/13 11:45:17;;;;;;;;;30.25;29.50;;;;;7.22;64.84;103673.84;5055407;28;46193;-76
2022/01/13 11:47:43;;;;;;;;;33.00;26.75;;;;;7.29;64.51;103685.50;5055294;28;45307;-78
2022/01/13 11:50:18;;;;;;;;;30.75;25.75;;;;;7.32;64.52;103681.09;5055378;28;45288;-74
2022/01/13 11:52:52;;;;;;;;;31.00;27.75;;;;;7.15;64.97;103645.25;5055417;28;45465;-78
2022/01/13 11:55:20;;;;;;;;;26.00;25.75;;;;;7.39;64.63;103685.66;5056491;28;46213;-78
2022/01/13 11:57:46;;;;;;;;;31.75;25.25;;;;;7.29;64.66;103672.16;5055941;28;45350;-78
2022/01/13 12:00:29;;;;;;;;;33.50;32.00;;;;;7.43;64.78;103682.16;5056264;28;45371;-80
2022/01/13 12:02:55;;;;;;;;;36.75;28.25;;;;;7.44;65.07;103677.72;5055794;28;45217;-78
2022/01/13 12:05:24;;;;;;;;;35.50;28.75;;;;;7.49;64.34;103678.66;5054828;28;45458;-74
2022/01/13 12:07:53;;;;;;;;;36.50;30.00;;;;;7.46;64.29;103668.84;5054714;28;45508;-76
2022/01/13 12:10:24;;;;;;;;;37.25;29.50;;;;;7.51;64.26;103671.56;5054816;28;46451;-79
2022/01/13 12:12:53;;;;;;;;;41.00;30.00;;;;;7.52;64.42;103670.72;5054571;28;45295;-79
2022/01/13 12:15:25;;;;;;;;;33.50;28.00;;;;;7.55;64.42;103663.66;5055299;28;46219;-75
2022/01/13 12:17:55;;;;;;;;;38.25;32.00;;;;;7.58;63.77;103666.34;5036701;28;45441;-73
2022/01/13 12:20:26;;;;;;;;;37.00;31.50;;;;;7.62;63.91;103656.59;5055750;28;45414;-75
2022/01/13 12:23:04;;;;;;;;;35.00;31.25;;;;;7.66;63.48;103650.41;5055414;28;45411;-77
2022/01/13 12:25:32;;;;;;;;;31.25;27.00;;;;;7.79;63.43;103646.13;5054325;28;45434;-76
2022/01/13 12:28:11;;;;;;;;;38.75;29.25;;;;;7.88;62.48;103652.47;5037907;28;45383;-74
2022/01/13 12:30:37;;;;;;;;;30.00;27.00;;;;;7.95;62.27;103654.34;5053400;28;45385;-76
2022/01/13 12:33:03;;;;;;;;;32.25;31.50;;;;;8.01;62.86;103656.19;5054581;28;45320;-77
2022/01/13 12:35:35;;;;;;;;;33.75;29.75;;;;;8.04;62.50;103649.97;5059289;28;45465;-75
2022/01/13 12:38:15;;;;;;;;;27.00;24.75;;;;;8.04;62.98;103648.19;5065389;28;45478;-73
2022/01/13 12:40:53;;;;;;;;;30.50;28.25;;;;;8.08;62.21;103646.47;5057457;28;45292;-73
2022/01/13 12:43:37;;;;;;;;;36.50;28.50;;;;;8.05;62.28;103644.66;5054592;28;46212;-76
2022/01/13 12:46:24;;;;;;;;;40.75;35.50;;;;;8.07;63.14;103640.22;5054702;28;45372;-75
2022/01/13 12:48:52;;;;;;;;;41.00;32.50;;;;;8.14;62.80;103641.19;5054660;28;45513;-74
2022/01/13 12:51:21;;;;;;;;;35.75;30.00;;;;;8.11;62.40;103630.47;5058047;28;45240;-74
2022/01/13 12:53:48;;;;;;;;;36.25;32.00;;;;;8.07;62.26;103620.63;5054596;28;45521;-77
2022/01/13 12:56:17;;;;;;;;;38.25;29.25;;;;;8.22;62.11;103634.13;5054497;28;45545;-77
2022/01/13 12:58:54;;;;;;;;;33.75;29.00;;;;;8.27;61.98;103637.75;5055540;28;45429;-75
2022/01/13 13:01:31;;;;;;;;;44.50;33.25;;;;;8.33;61.96;103637.88;5054782;28;45300;-76
2022/01/13 13:03:58;;;;;;;;;46.00;32.00;;;;;8.39;62.26;103635.25;5049892;28;45371;-78
2022/01/13 13:06:23;;;;;;;;;39.50;33.25;;;;;8.45;61.84;103637.06;5061898;28;45400;-77
2022/01/13 13:08:49;;;;;;;;;37.75;34.75;;;;;8.37;61.20;103612.03;5054248;28;45402;-74
2022/01/13 13:11:15;;;;;;;;;35.50;27.75;;;;;8.44;60.52;103616.56;5054194;28;45315;-77
2022/01/13 13:13:49;;;;;;;;;34.00;26.25;;;;;8.50;60.67;103625.53;5054648;28;45579;-77
2022/01/13 13:16:15;;;;;;;;;49.00;30.25;;;;;8.55;60.33;103622.91;5054390;28;46361;-76
2022/01/13 13:18:41;;;;;;;;;35.25;30.50;;;;;8.58;60.36;103618.47;5054938;28;45475;-77
2022/01/13 13:21:09;;;;;;;;;22.25;22.00;;;;;8.65;59.77;103614.06;5053700;28;45452;-76
2022/01/13 13:23:37;;;;;;;;;39.00;28.25;;;;;8.63;60.32;103608.69;5053489;28;45496;-75
2022/01/13 13:26:16;;;;;;;;;35.50;30.00;;;;;8.54;60.33;103597.94;5053877;28;46171;-76
2022/01/13 13:28:47;;;;;;;;;34.25;30.00;;;;;8.62;60.65;103611.34;5053878;28;45653;-76
2022/01/13 13:31:17;;;;;;;;;32.00;28.25;;;;;8.59;60.25;103603.34;5053795;28;45648;-78
2022/01/13 13:33:43;;;;;;;;;33.00;30.25;;;;;8.60;60.65;103618.47;5053619;28;45373;-76
2022/01/13 13:36:20;;;;;;;;;30.00;28.25;;;;;8.59;60.33;103611.34;5052002;28;45291;-76
2022/01/13 13:38:46;;;;;;;;;38.00;32.25;;;;;8.61;59.85;103601.53;5056134;28;45450;-77
2022/01/13 13:41:12;;;;;;;;;31.75;28.75;;;;;8.53;59.82;103590.78;5060112;28;45366;-78
2022/01/13 13:43:37;;;;;;;;;35.75;31.75;;;;;8.50;60.56;103590.78;5057723;28;45604;-77
2022/01/13 13:46:03;;;;;;;;;35.25;31.75;;;;;8.52;60.21;103591.66;5039385;28;46698;-76
2022/01/13 13:48:29;;;;;;;;;29.50;24.75;;;;;8.48;60.24;103589.88;5057345;28;45355;-75
2022/01/13 13:50:55;;;;;;;;;32.75;31.00;;;;;8.46;60.57;103588.94;5058080;28;45326;-74
2022/01/13 13:53:20;;;;;;;;;41.25;30.25;;;;;8.51;60.63;103600.56;5056121;28;45335;-77
2022/01/13 13:56:04;;;;;;;;;35.25;32.50;;;;;8.51;60.76;103599.66;5056949;28;46081;-78
2022/01/13 13:58:30;;;;;;;;;32.00;25.75;;;;;8.50;60.76;103593.47;5057318;28;45297;-77
2022/01/13 14:01:07;;;;;;;;;34.25;32.25;;;;;8.30;61.05;103561.16;5057300;28;45435;-77
2022/01/13 14:03:44;;;;;;;;;38.75;33.50;;;;;8.47;61.48;103581.84;5039164;28;45518;-76
2022/01/13 14:06:10;;;;;;;;;32.00;29.00;;;;;8.44;60.99;103582.69;5060084;28;45370;-75
2022/01/13 14:08:50;;;;;;;;;38.75;33.25;;;;;8.47;60.96;103590.75;5049031;28;45382;-78
2022/01/13 14:11:15;;;;;;;;;43.50;37.00;;;;;8.46;60.42;103596.97;5057360;28;45449;-75
2022/01/13 14:13:42;;;;;;;;;31.75;25.25;;;;;8.43;60.98;103593.38;5057765;28;45508;-76
2022/01/13 14:16:08;;;;;;;;;43.00;36.75;;;;;8.42;61.70;103592.47;5058090;28;46595;-76
2022/01/13 14:18:36;;;;;;;;;36.50;33.75;;;;;8.37;61.63;103580.84;5059011;28;45410;-77
2022/01/13 14:21:03;;;;;;;;;31.00;26.50;;;;;8.41;61.19;103589.81;5070950;28;45489;-77
2022/01/13 14:23:41;;;;;;;;;36.50;29.75;;;;;8.43;60.74;103580.91;5056088;28;45477;-77
2022/01/13 14:26:08;;;;;;;;;38.00;32.75;;;;;8.52;60.74;103567.59;5042616;28;46024;-77
2022/01/13 14:28:35;;;;;;;;;29.50;26.25;;;;;8.69;60.19;103557.94;5053535;28;45638;-76
2022/01/13 14:31:06;;;;;;;;;38.50;32.50;;;;;8.99;58.79;103556.34;5056731;28;45427;-78
2022/01/13 14:33:35;;;;;;;;;34.75;26.00;;;;;9.35;58.11;103567.25;5057628;28;45519;-77
2022/01/13 14:36:15;;;;;;;;;33.75;27.75;;;;;9.31;57.19;103503.84;5068361;28;45303;-79
2022/01/13 14:38:51;;;;;;;;;33.00;25.50;;;;;9.72;55.95;103495.00;5062472;28;45476;-78
2022/01/13 14:41:25;;;;;;;;;32.25;30.75;;;;;10.36;55.23;103551.38;5067339;28;45379;-75
2022/01/13 14:44:05;;;;;;;;;31.75;26.75;;;;;10.63;54.43;103541.50;5056798;28;45374;-78
2022/01/13 14:46:39;;;;;;;;;23.50;20.50;;;;;10.88;53.45;103553.09;5039457;28;45326;-71
2022/01/13 14:49:06;;;;;;;;;30.00;28.50;;;;;11.04;52.73;103535.16;5065960;28;45319;-71
2022/01/13 14:51:33;;;;;;;;;31.75;28.25;;;;;11.26;52.41;103549.38;5063885;28;45251;-72
2022/01/13 14:54:00;;;;;;;;;31.00;27.75;;;;;11.30;51.35;103533.28;5047523;28;45559;-71
2022/01/13 14:56:26;;;;;;;;;29.00;29.00;;;;;11.45;51.22;103537.66;5062125;28;45490;-72
2022/01/13 14:58:52;;;;;;;;;30.75;26.25;;;;;11.51;50.71;103540.31;5056216;28;45392;-72
2022/01/13 15:01:19;;;;;;;;;30.75;28.50;;;;;11.46;50.31;103530.50;5055969;28;45439;-74
2022/01/13 15:03:46;;;;;;;;;32.75;29.50;;;;;11.42;50.66;103531.41;5056438;28;45379;-73
2022/01/13 15:06:13;;;;;;;;;27.50;24.00;;;;;11.41;50.53;103543.94;5056078;28;45410;-73
2022/01/13 15:08:38;;;;;;;;;38.00;27.00;;;;;11.43;49.45;103552.00;5056184;28;45611;-75
2022/01/13 15:11:05;;;;;;;;;30.75;24.75;;;;;11.40;49.07;103528.72;5056513;28;45328;-75
2022/01/13 15:13:30;;;;;;;;;29.25;24.00;;;;;11.51;48.82;103536.72;5058230;28;45401;-74
2022/01/13 15:15:56;;;;;;;;;22.00;18.50;;;;;11.50;48.69;103529.56;5055775;28;45351;-74
2022/01/13 15:18:23;;;;;;;;;23.00;21.50;;;;;11.59;48.02;103541.16;5057004;28;45407;-75
2022/01/13 15:20:49;;;;;;;;;27.25;21.00;;;;;11.41;49.04;103541.25;5056640;28;45398;-74
2022/01/13 15:23:14;;;;;;;;;26.75;23.25;;;;;11.21;49.21;103540.47;5057114;28;45363;-75
2022/01/13 15:25:40;;;;;;;;;25.50;22.50;;;;;10.88;49.96;103512.84;5056765;28;46428;-76
2022/01/13 15:28:06;;;;;;;;;27.75;24.00;;;;;10.70;50.37;103526.31;5056495;28;45358;-76
2022/01/13 15:30:33;;;;;;;;;27.50;24.50;;;;;10.53;51.46;103537.06;5038435;28;45490;-75
2022/01/13 15:32:58;;;;;;;;;39.00;28.25;;;;;10.23;51.91;103527.25;5056654;28;45293;-73
2022/01/13 15:35:24;;;;;;;;;26.75;25.00;;;;;10.14;52.84;103540.59;5056478;28;46185;-75
2022/01/13 15:37:50;;;;;;;;;31.25;29.75;;;;;9.94;52.70;103541.50;5055404;28;45431;-74
2022/01/13 15:40:17;;;;;;;;;29.25;26.25;;;;;9.74;53.59;103534.31;5071269;28;45291;-75
2022/01/13 15:42:45;;;;;;;;;26.50;26.00;;;;;9.55;54.03;103527.13;5055959;28;45502;-74
2022/01/13 15:45:14;;;;;;;;;31.00;23.25;;;;;9.46;54.83;103533.34;5056067;28;45506;-75
2022/01/13 15:47:41;;;;;;;;;31.25;28.25;;;;;9.34;55.10;103532.41;5055880;28;45442;-76
2022/01/13 15:50:10;;;;;;;;;31.25;24.00;;;;;9.14;56.02;103529.66;5055391;28;45423;-74
2022/01/13 15:52:36;;;;;;;;;28.75;25.75;;;;;9.10;56.21;103538.56;5055131;28;45288;-74
2022/01/13 15:55:04;;;;;;;;;28.25;26.00;;;;;9.02;56.53;103540.28;5055069;28;46319;-74
2022/01/13 15:57:29;;;;;;;;;29.50;26.75;;;;;8.86;56.99;103531.28;5055230;28;45387;-74
2022/01/13 15:59:55;;;;;;;;;36.50;27.75;;;;;8.83;57.26;103541.09;5055253;28;45366;-76
2022/01/13 16:02:20;;;;;;;;;29.50;22.25;;;;;8.71;57.61;103539.22;5037246;28;46389;-75
2022/01/13 16:04:46;;;;;;;;;25.50;23.00;;;;;8.55;57.41;103516.84;5054304;28;45480;-76
2022/01/13 16:07:12;;;;;;;;;30.25;26.50;;;;;8.61;57.83;103537.38;5054094;28;45455;-75
2022/01/13 16:09:37;;;;;;;;;27.75;21.50;;;;;8.55;58.10;103537.34;5054711;28;45352;-76
2022/01/13 16:12:03;;;;;;;;;32.75;25.75;;;;;8.49;58.30;103542.66;5055731;28;45583;-75
2022/01/13 16:14:30;;;;;;;;;28.00;22.25;;;;;8.45;58.43;103540.81;5055519;28;46225;-73
2022/01/13 16:16:56;;;;;;;;;26.75;20.50;;;;;8.37;58.71;103531.84;5052925;28;46091;-72
2022/01/13 16:19:22;;;;;;;;;21.75;19.00;;;;;8.32;58.95;103542.50;5054126;28;45487;-74
2022/01/13 16:21:47;;;;;;;;;31.25;22.25;;;;;8.19;59.21;103517.41;5054483;28;45619;-74
2022/01/13 16:24:13;;;;;;;;;25.75;23.25;;;;;8.23;59.64;103545.06;5053662;28;45663;-77
2022/01/13 16:26:39;;;;;;;;;21.50;18.00;;;;;8.18;59.67;103537.00;5054844;28;45475;-78
2022/01/13 16:29:05;;;;;;;;;25.50;22.75;;;;;8.15;59.67;103544.13;5055425;28;46534;-75
2022/01/13 16:31:30;;;;;;;;;22.75;21.00;;;;;8.10;60.24;103543.16;5035507;28;46644;-72
2022/01/13 16:33:56;;;;;;;;;16.50;15.00;;;;;8.06;60.05;103546.69;5054604;28;46321;-75
2022/01/13 16:36:22;;;;;;;;;18.25;15.00;;;;;7.99;60.19;103543.09;5054799;28;45399;-75
2022/01/13 16:38:49;;;;;;;;;23.75;20.75;;;;;7.97;60.98;103544.84;5036341;28;45612;-73
2022/01/13 16:41:15;;;;;;;;;19.50;17.00;;;;;7.91;60.76;103547.47;5054253;28;45275;-78
2022/01/13 16:43:40;;;;;;;;;23.00;19.25;;;;;7.93;61.01;103554.59;5054126;28;46575;-76
2022/01/13 16:46:07;;;;;;;;;22.25;17.00;;;;;7.90;61.04;103556.34;5054354;28;45372;-76
2022/01/13 16:48:33;;;;;;;;;19.25;17.75;;;;;7.81;61.31;103541.13;5036663;28;45372;-76
2022/01/13 16:51:02;;;;;;;;;17.75;16.75;;;;;7.78;61.12;103535.75;5055866;28;45341;-74
2022/01/13 16:53:29;;;;;;;;;19.50;18.00;;;;;7.81;61.23;103545.56;5053426;28;46253;-74
2022/01/13 16:55:54;;;;;;;;;20.75;16.75;;;;;7.79;61.69;103542.88;5054652;28;45398;-74